sensor_id;sensor_type;location;lat;lon;timestamp;P1;durP1;ratioP1;P2;durP2;ratioP2
65172;SDS011;69059;52.218;5.172;2023-05-07T00:00:26;22.27;;;18.63;;
65172;SDS011;69059;52.218;5.172;2023-05-07T00:02:54;32.00;;;21.63;;
65172;SDS011;69059;52.218;5.172;2023-05-07T00:05:22;29.73;;;22.23;;
65172;SDS011;69059;52.218;5.172;2023-05-07T00:07:49;24.40;;;19.70;;
65172;SDS011;69059;52.218;5.172;2023-05-07T00:10:18;26.43;;;20.57;;
65172;SDS011;69059;52.218;5.172;2023-05-07T00:12:46;22.88;;;18.75;;
65172;SDS011;69059;52.218;5.172;2023-05-07T00:15:15;24.05;;;18.00;;
65172;SDS011;69059;52.218;5.172;2023-05-07T00:17:43;20.43;;;17.70;;
65172;SDS011;69059;52.218;5.172;2023-05-07T00:20:11;19.33;;;15.98;;
65172;SDS011;69059;52.218;5.172;2023-05-07T00:22:39;23.55;;;17.30;;
65172;SDS011;69059;52.218;5.172;2023-05-07T00:25:07;20.37;;;17.07;;
65172;SDS011;69059;52.218;5.172;2023-05-07T00:27:36;21.93;;;18.07;;
65172;SDS011;69059;52.218;5.172;2023-05-07T00:30:04;16.73;;;14.33;;
65172;SDS011;69059;52.218;5.172;2023-05-07T00:32:35;19.37;;;17.13;;
65172;SDS011;69059;52.218;5.172;2023-05-07T00:35:03;19.77;;;15.07;;
65172;SDS011;69059;52.218;5.172;2023-05-07T00:37:31;16.83;;;15.02;;
65172;SDS011;69059;52.218;5.172;2023-05-07T00:39:59;20.30;;;14.45;;
65172;SDS011;69059;52.218;5.172;2023-05-07T00:42:29;18.50;;;15.07;;
65172;SDS011;69059;52.218;5.172;2023-05-07T00:44:58;19.63;;;15.57;;
65172;SDS011;69059;52.218;5.172;2023-05-07T00:47:26;17.00;;;14.20;;
65172;SDS011;69059;52.218;5.172;2023-05-07T00:49:55;15.88;;;13.60;;
65172;SDS011;69059;52.218;5.172;2023-05-07T00:52:24;17.47;;;15.63;;
65172;SDS011;69059;52.218;5.172;2023-05-07T00:54:53;17.47;;;13.77;;
65172;SDS011;69059;52.218;5.172;2023-05-07T00:57:21;15.93;;;14.32;;
65172;SDS011;69059;52.218;5.172;2023-05-07T00:59:51;23.13;;;17.70;;
65172;SDS011;69059;52.218;5.172;2023-05-07T01:02:19;18.80;;;15.00;;
65172;SDS011;69059;52.218;5.172;2023-05-07T01:04:47;15.32;;;13.15;;
65172;SDS011;69059;52.218;5.172;2023-05-07T01:07:16;14.70;;;12.43;;
65172;SDS011;69059;52.218;5.172;2023-05-07T01:09:44;18.20;;;15.10;;
65172;SDS011;69059;52.218;5.172;2023-05-07T01:12:12;18.45;;;16.50;;
65172;SDS011;69059;52.218;5.172;2023-05-07T01:14:40;18.27;;;16.20;;
65172;SDS011;69059;52.218;5.172;2023-05-07T01:17:08;15.23;;;13.57;;
65172;SDS011;69059;52.218;5.172;2023-05-07T01:19:36;19.10;;;15.48;;
65172;SDS011;69059;52.218;5.172;2023-05-07T01:22:07;20.20;;;18.13;;
65172;SDS011;69059;52.218;5.172;2023-05-07T01:24:38;17.77;;;13.60;;
65172;SDS011;69059;52.218;5.172;2023-05-07T01:27:05;13.77;;;12.33;;
65172;SDS011;69059;52.218;5.172;2023-05-07T01:29:33;14.23;;;12.15;;
65172;SDS011;69059;52.218;5.172;2023-05-07T01:32:01;19.73;;;15.75;;
65172;SDS011;69059;52.218;5.172;2023-05-07T01:34:31;19.13;;;15.47;;
65172;SDS011;69059;52.218;5.172;2023-05-07T01:37:00;15.47;;;13.30;;
65172;SDS011;69059;52.218;5.172;2023-05-07T01:39:29;13.83;;;12.17;;
65172;SDS011;69059;52.218;5.172;2023-05-07T01:41:59;13.40;;;10.47;;
65172;SDS011;69059;52.218;5.172;2023-05-07T01:44:27;13.23;;;10.87;;
65172;SDS011;69059;52.218;5.172;2023-05-07T01:46:56;14.18;;;12.35;;
65172;SDS011;69059;52.218;5.172;2023-05-07T01:49:24;15.13;;;12.65;;
65172;SDS011;69059;52.218;5.172;2023-05-07T01:51:52;19.95;;;15.27;;
65172;SDS011;69059;52.218;5.172;2023-05-07T01:54:21;14.60;;;12.00;;
65172;SDS011;69059;52.218;5.172;2023-05-07T01:56:55;14.93;;;13.13;;
65172;SDS011;69059;52.218;5.172;2023-05-07T01:59:24;13.13;;;11.30;;
65172;SDS011;69059;52.218;5.172;2023-05-07T02:01:52;11.43;;;10.23;;
65172;SDS011;69059;52.218;5.172;2023-05-07T02:04:20;13.55;;;12.00;;
65172;SDS011;69059;52.218;5.172;2023-05-07T02:06:48;11.57;;;10.37;;
65172;SDS011;69059;52.218;5.172;2023-05-07T02:09:15;17.80;;;14.90;;
65172;SDS011;69059;52.218;5.172;2023-05-07T02:11:44;13.05;;;11.75;;
65172;SDS011;69059;52.218;5.172;2023-05-07T02:14:11;16.17;;;12.33;;
65172;SDS011;69059;52.218;5.172;2023-05-07T02:16:40;17.95;;;13.82;;
65172;SDS011;69059;52.218;5.172;2023-05-07T02:19:08;11.53;;;10.10;;
65172;SDS011;69059;52.218;5.172;2023-05-07T02:21:36;12.52;;;9.73;;
65172;SDS011;69059;52.218;5.172;2023-05-07T02:24:04;14.50;;;11.23;;
65172;SDS011;69059;52.218;5.172;2023-05-07T02:26:32;12.82;;;10.45;;
65172;SDS011;69059;52.218;5.172;2023-05-07T02:29:00;11.70;;;10.32;;
65172;SDS011;69059;52.218;5.172;2023-05-07T02:31:28;15.07;;;13.55;;
65172;SDS011;69059;52.218;5.172;2023-05-07T02:33:57;14.48;;;12.85;;
65172;SDS011;69059;52.218;5.172;2023-05-07T02:36:25;12.47;;;10.93;;
65172;SDS011;69059;52.218;5.172;2023-05-07T02:38:53;15.82;;;13.52;;
65172;SDS011;69059;52.218;5.172;2023-05-07T02:41:21;12.85;;;11.35;;
65172;SDS011;69059;52.218;5.172;2023-05-07T02:43:48;11.88;;;10.68;;
65172;SDS011;69059;52.218;5.172;2023-05-07T02:46:16;13.80;;;12.33;;
65172;SDS011;69059;52.218;5.172;2023-05-07T02:48:44;12.02;;;10.90;;
65172;SDS011;69059;52.218;5.172;2023-05-07T02:51:13;11.67;;;10.53;;
65172;SDS011;69059;52.218;5.172;2023-05-07T02:53:41;13.53;;;11.20;;
65172;SDS011;69059;52.218;5.172;2023-05-07T02:56:09;14.02;;;11.30;;
65172;SDS011;69059;52.218;5.172;2023-05-07T02:58:36;9.30;;;8.27;;
65172;SDS011;69059;52.218;5.172;2023-05-07T03:01:05;11.60;;;9.47;;
65172;SDS011;69059;52.218;5.172;2023-05-07T03:03:33;10.95;;;9.73;;
65172;SDS011;69059;52.218;5.172;2023-05-07T03:06:01;11.67;;;9.97;;
65172;SDS011;69059;52.218;5.172;2023-05-07T03:08:30;16.67;;;14.50;;
65172;SDS011;69059;52.218;5.172;2023-05-07T03:10:58;11.10;;;9.93;;
65172;SDS011;69059;52.218;5.172;2023-05-07T03:13:26;13.38;;;11.07;;
65172;SDS011;69059;52.218;5.172;2023-05-07T03:15:53;11.87;;;10.67;;
65172;SDS011;69059;52.218;5.172;2023-05-07T03:18:21;16.20;;;12.00;;
65172;SDS011;69059;52.218;5.172;2023-05-07T03:20:51;10.37;;;9.33;;
65172;SDS011;69059;52.218;5.172;2023-05-07T03:23:19;17.53;;;13.63;;
65172;SDS011;69059;52.218;5.172;2023-05-07T03:25:51;13.23;;;10.90;;
65172;SDS011;69059;52.218;5.172;2023-05-07T03:28:18;15.40;;;12.67;;
65172;SDS011;69059;52.218;5.172;2023-05-07T03:30:46;13.93;;;12.50;;
65172;SDS011;69059;52.218;5.172;2023-05-07T03:33:14;12.23;;;10.93;;
65172;SDS011;69059;52.218;5.172;2023-05-07T03:35:42;10.40;;;9.07;;
65172;SDS011;69059;52.218;5.172;2023-05-07T03:38:09;11.30;;;10.23;;
65172;SDS011;69059;52.218;5.172;2023-05-07T03:40:37;14.13;;;12.35;;
65172;SDS011;69059;52.218;5.172;2023-05-07T03:43:06;13.55;;;11.98;;
65172;SDS011;69059;52.218;5.172;2023-05-07T03:45:34;19.07;;;15.33;;
65172;SDS011;69059;52.218;5.172;2023-05-07T03:48:02;15.93;;;14.33;;
65172;SDS011;69059;52.218;5.172;2023-05-07T03:50:30;17.35;;;12.85;;
65172;SDS011;69059;52.218;5.172;2023-05-07T03:52:58;15.27;;;11.88;;
65172;SDS011;69059;52.218;5.172;2023-05-07T03:55:25;16.13;;;14.17;;
65172;SDS011;69059;52.218;5.172;2023-05-07T03:57:53;15.77;;;13.27;;
65172;SDS011;69059;52.218;5.172;2023-05-07T04:00:24;14.50;;;13.00;;
65172;SDS011;69059;52.218;5.172;2023-05-07T04:02:51;16.33;;;14.60;;
65172;SDS011;69059;52.218;5.172;2023-05-07T04:05:19;16.70;;;14.60;;
65172;SDS011;69059;52.218;5.172;2023-05-07T04:07:47;14.77;;;12.63;;
65172;SDS011;69059;52.218;5.172;2023-05-07T04:10:15;13.55;;;12.23;;
65172;SDS011;69059;52.218;5.172;2023-05-07T04:12:42;14.67;;;12.87;;
65172;SDS011;69059;52.218;5.172;2023-05-07T04:15:10;18.60;;;16.50;;
65172;SDS011;69059;52.218;5.172;2023-05-07T04:17:39;18.93;;;15.50;;
65172;SDS011;69059;52.218;5.172;2023-05-07T04:20:08;16.47;;;14.60;;
65172;SDS011;69059;52.218;5.172;2023-05-07T04:22:36;13.87;;;12.37;;
65172;SDS011;69059;52.218;5.172;2023-05-07T04:25:05;16.10;;;14.50;;
65172;SDS011;69059;52.218;5.172;2023-05-07T04:27:34;20.50;;;15.03;;
65172;SDS011;69059;52.218;5.172;2023-05-07T04:30:02;16.92;;;14.32;;
65172;SDS011;69059;52.218;5.172;2023-05-07T04:32:30;13.27;;;11.88;;
65172;SDS011;69059;52.218;5.172;2023-05-07T04:34:59;18.58;;;16.40;;
65172;SDS011;69059;52.218;5.172;2023-05-07T04:37:27;20.03;;;15.93;;
65172;SDS011;69059;52.218;5.172;2023-05-07T04:39:54;14.95;;;13.38;;
65172;SDS011;69059;52.218;5.172;2023-05-07T04:42:22;23.33;;;17.60;;
65172;SDS011;69059;52.218;5.172;2023-05-07T04:44:52;15.52;;;13.52;;
65172;SDS011;69059;52.218;5.172;2023-05-07T04:47:20;17.30;;;13.70;;
65172;SDS011;69059;52.218;5.172;2023-05-07T04:49:48;15.57;;;13.88;;
65172;SDS011;69059;52.218;5.172;2023-05-07T04:52:17;11.80;;;10.70;;
65172;SDS011;69059;52.218;5.172;2023-05-07T04:54:45;13.53;;;10.93;;
65172;SDS011;69059;52.218;5.172;2023-05-07T04:57:13;14.07;;;12.75;;
65172;SDS011;69059;52.218;5.172;2023-05-07T04:59:40;15.30;;;13.67;;
65172;SDS011;69059;52.218;5.172;2023-05-07T05:02:09;18.63;;;16.50;;
65172;SDS011;69059;52.218;5.172;2023-05-07T05:04:37;12.70;;;11.17;;
65172;SDS011;69059;52.218;5.172;2023-05-07T05:07:05;14.57;;;13.27;;
65172;SDS011;69059;52.218;5.172;2023-05-07T05:09:34;16.93;;;13.13;;
65172;SDS011;69059;52.218;5.172;2023-05-07T05:12:01;14.37;;;12.87;;
65172;SDS011;69059;52.218;5.172;2023-05-07T05:14:29;13.35;;;11.95;;
65172;SDS011;69059;52.218;5.172;2023-05-07T05:16:57;15.43;;;12.88;;
65172;SDS011;69059;52.218;5.172;2023-05-07T05:19:25;13.23;;;11.77;;
65172;SDS011;69059;52.218;5.172;2023-05-07T05:21:52;15.97;;;12.83;;
65172;SDS011;69059;52.218;5.172;2023-05-07T05:24:20;13.33;;;11.93;;
65172;SDS011;69059;52.218;5.172;2023-05-07T05:26:49;12.07;;;10.85;;
65172;SDS011;69059;52.218;5.172;2023-05-07T05:29:17;14.60;;;11.70;;
65172;SDS011;69059;52.218;5.172;2023-05-07T05:31:44;17.17;;;15.33;;
65172;SDS011;69059;52.218;5.172;2023-05-07T05:34:12;14.73;;;11.52;;
65172;SDS011;69059;52.218;5.172;2023-05-07T05:36:40;13.70;;;12.10;;
65172;SDS011;69059;52.218;5.172;2023-05-07T05:39:08;23.73;;;15.65;;
65172;SDS011;69059;52.218;5.172;2023-05-07T05:41:35;13.00;;;11.53;;
65172;SDS011;69059;52.218;5.172;2023-05-07T05:44:04;14.80;;;12.70;;
65172;SDS011;69059;52.218;5.172;2023-05-07T05:46:32;14.57;;;11.90;;
65172;SDS011;69059;52.218;5.172;2023-05-07T05:49:02;16.67;;;14.57;;
65172;SDS011;69059;52.218;5.172;2023-05-07T05:51:30;19.95;;;16.63;;
65172;SDS011;69059;52.218;5.172;2023-05-07T05:53:57;21.92;;;15.82;;
65172;SDS011;69059;52.218;5.172;2023-05-07T05:56:25;17.43;;;13.67;;
65172;SDS011;69059;52.218;5.172;2023-05-07T05:58:53;17.50;;;14.63;;
65172;SDS011;69059;52.218;5.172;2023-05-07T06:01:22;18.95;;;14.50;;
65172;SDS011;69059;52.218;5.172;2023-05-07T06:03:50;16.80;;;14.57;;
65172;SDS011;69059;52.218;5.172;2023-05-07T06:06:18;19.03;;;15.97;;
65172;SDS011;69059;52.218;5.172;2023-05-07T06:08:45;21.27;;;17.13;;
65172;SDS011;69059;52.218;5.172;2023-05-07T06:11:13;18.40;;;16.30;;
65172;SDS011;69059;52.218;5.172;2023-05-07T06:13:41;22.48;;;16.70;;
65172;SDS011;69059;52.218;5.172;2023-05-07T06:16:09;18.30;;;15.60;;
65172;SDS011;69059;52.218;5.172;2023-05-07T06:18:38;18.80;;;16.70;;
65172;SDS011;69059;52.218;5.172;2023-05-07T06:21:05;18.03;;;16.17;;
65172;SDS011;69059;52.218;5.172;2023-05-07T06:23:33;21.48;;;18.23;;
65172;SDS011;69059;52.218;5.172;2023-05-07T06:26:01;21.92;;;18.02;;
65172;SDS011;69059;52.218;5.172;2023-05-07T06:28:29;21.30;;;16.50;;
65172;SDS011;69059;52.218;5.172;2023-05-07T06:31:11;22.27;;;17.53;;
65172;SDS011;69059;52.218;5.172;2023-05-07T06:33:41;27.42;;;19.20;;
65172;SDS011;69059;52.218;5.172;2023-05-07T06:36:09;22.27;;;18.43;;
65172;SDS011;69059;52.218;5.172;2023-05-07T06:38:37;28.90;;;18.75;;
65172;SDS011;69059;52.218;5.172;2023-05-07T06:41:05;20.67;;;17.53;;
65172;SDS011;69059;52.218;5.172;2023-05-07T06:43:33;19.23;;;17.20;;
65172;SDS011;69059;52.218;5.172;2023-05-07T06:46:01;24.48;;;19.67;;
65172;SDS011;69059;52.218;5.172;2023-05-07T06:48:28;20.80;;;17.30;;
65172;SDS011;69059;52.218;5.172;2023-05-07T06:50:58;23.65;;;19.70;;
65172;SDS011;69059;52.218;5.172;2023-05-07T06:53:25;23.97;;;17.40;;
65172;SDS011;69059;52.218;5.172;2023-05-07T06:58:22;21.08;;;18.55;;
65172;SDS011;69059;52.218;5.172;2023-05-07T07:00:49;25.05;;;20.52;;
65172;SDS011;69059;52.218;5.172;2023-05-07T07:03:17;22.42;;;19.55;;
65172;SDS011;69059;52.218;5.172;2023-05-07T07:05:45;26.27;;;19.35;;
65172;SDS011;69059;52.218;5.172;2023-05-07T07:08:14;22.85;;;19.67;;
65172;SDS011;69059;52.218;5.172;2023-05-07T07:10:44;25.43;;;19.77;;
65172;SDS011;69059;52.218;5.172;2023-05-07T07:13:11;23.90;;;20.30;;
65172;SDS011;69059;52.218;5.172;2023-05-07T07:15:39;23.42;;;19.95;;
65172;SDS011;69059;52.218;5.172;2023-05-07T07:18:07;23.63;;;19.58;;
65172;SDS011;69059;52.218;5.172;2023-05-07T07:20:35;24.58;;;20.23;;
65172;SDS011;69059;52.218;5.172;2023-05-07T07:23:03;19.98;;;17.90;;
65172;SDS011;69059;52.218;5.172;2023-05-07T07:25:32;21.80;;;18.63;;
65172;SDS011;69059;52.218;5.172;2023-05-07T07:28:00;23.33;;;20.07;;
65172;SDS011;69059;52.218;5.172;2023-05-07T07:30:27;21.00;;;18.80;;
65172;SDS011;69059;52.218;5.172;2023-05-07T07:32:55;21.85;;;19.55;;
65172;SDS011;69059;52.218;5.172;2023-05-07T07:35:28;17.83;;;15.83;;
65172;SDS011;69059;52.218;5.172;2023-05-07T07:37:56;24.00;;;20.02;;
65172;SDS011;69059;52.218;5.172;2023-05-07T07:40:24;22.77;;;20.33;;
65172;SDS011;69059;52.218;5.172;2023-05-07T07:42:53;22.40;;;19.83;;
65172;SDS011;69059;52.218;5.172;2023-05-07T07:45:21;20.37;;;18.27;;
65172;SDS011;69059;52.218;5.172;2023-05-07T07:47:49;21.52;;;19.20;;
65172;SDS011;69059;52.218;5.172;2023-05-07T07:50:17;21.80;;;19.45;;
65172;SDS011;69059;52.218;5.172;2023-05-07T07:53:01;20.07;;;17.93;;
65172;SDS011;69059;52.218;5.172;2023-05-07T07:55:29;20.45;;;18.33;;
65172;SDS011;69059;52.218;5.172;2023-05-07T07:57:59;26.63;;;20.30;;
65172;SDS011;69059;52.218;5.172;2023-05-07T08:00:26;20.42;;;18.20;;
65172;SDS011;69059;52.218;5.172;2023-05-07T08:02:54;20.85;;;18.70;;
65172;SDS011;69059;52.218;5.172;2023-05-07T08:05:22;23.33;;;18.83;;
65172;SDS011;69059;52.218;5.172;2023-05-07T08:07:50;21.85;;;19.55;;
65172;SDS011;69059;52.218;5.172;2023-05-07T08:10:19;21.45;;;19.23;;
65172;SDS011;69059;52.218;5.172;2023-05-07T08:12:47;22.35;;;19.95;;
65172;SDS011;69059;52.218;5.172;2023-05-07T08:15:17;22.85;;;20.45;;
65172;SDS011;69059;52.218;5.172;2023-05-07T08:17:45;20.95;;;18.88;;
65172;SDS011;69059;52.218;5.172;2023-05-07T08:20:13;24.15;;;21.27;;
65172;SDS011;69059;52.218;5.172;2023-05-07T08:22:41;22.88;;;20.58;;
65172;SDS011;69059;52.218;5.172;2023-05-07T08:25:08;20.90;;;18.90;;
65172;SDS011;69059;52.218;5.172;2023-05-07T08:27:36;19.92;;;17.58;;
65172;SDS011;69059;52.218;5.172;2023-05-07T08:30:04;21.05;;;18.65;;
65172;SDS011;69059;52.218;5.172;2023-05-07T08:32:35;21.25;;;19.08;;
65172;SDS011;69059;52.218;5.172;2023-05-07T08:35:03;26.45;;;21.88;;
65172;SDS011;69059;52.218;5.172;2023-05-07T08:37:31;21.55;;;19.35;;
65172;SDS011;69059;52.218;5.172;2023-05-07T08:39:59;21.08;;;18.98;;
65172;SDS011;69059;52.218;5.172;2023-05-07T08:42:26;22.02;;;19.65;;
65172;SDS011;69059;52.218;5.172;2023-05-07T08:44:57;21.85;;;19.23;;
65172;SDS011;69059;52.218;5.172;2023-05-07T08:47:29;21.42;;;19.17;;
65172;SDS011;69059;52.218;5.172;2023-05-07T08:50:03;21.50;;;19.05;;
65172;SDS011;69059;52.218;5.172;2023-05-07T08:52:32;18.77;;;16.88;;
65172;SDS011;69059;52.218;5.172;2023-05-07T08:54:59;18.25;;;16.33;;
65172;SDS011;69059;52.218;5.172;2023-05-07T08:57:29;17.98;;;16.20;;
65172;SDS011;69059;52.218;5.172;2023-05-07T08:59:57;18.55;;;16.65;;
65172;SDS011;69059;52.218;5.172;2023-05-07T09:02:24;18.08;;;16.27;;
65172;SDS011;69059;52.218;5.172;2023-05-07T09:04:52;18.05;;;16.25;;
65172;SDS011;69059;52.218;5.172;2023-05-07T09:07:22;17.90;;;15.95;;
65172;SDS011;69059;52.218;5.172;2023-05-07T09:09:49;17.83;;;16.00;;
65172;SDS011;69059;52.218;5.172;2023-05-07T09:12:17;16.52;;;14.93;;
65172;SDS011;69059;52.218;5.172;2023-05-07T09:14:45;15.35;;;13.85;;
65172;SDS011;69059;52.218;5.172;2023-05-07T09:17:13;16.60;;;13.10;;
65172;SDS011;69059;52.218;5.172;2023-05-07T09:19:43;16.25;;;14.02;;
65172;SDS011;69059;52.218;5.172;2023-05-07T09:22:11;14.18;;;12.73;;
65172;SDS011;69059;52.218;5.172;2023-05-07T09:24:40;13.43;;;12.02;;
65172;SDS011;69059;52.218;5.172;2023-05-07T09:27:15;14.13;;;12.70;;
65172;SDS011;69059;52.218;5.172;2023-05-07T09:29:43;13.50;;;12.18;;
65172;SDS011;69059;52.218;5.172;2023-05-07T09:32:11;12.88;;;11.52;;
65172;SDS011;69059;52.218;5.172;2023-05-07T09:34:39;12.50;;;11.40;;
65172;SDS011;69059;52.218;5.172;2023-05-07T09:37:08;12.25;;;11.05;;
65172;SDS011;69059;52.218;5.172;2023-05-07T09:39:40;15.07;;;13.68;;
65172;SDS011;69059;52.218;5.172;2023-05-07T09:42:09;16.13;;;14.52;;
65172;SDS011;69059;52.218;5.172;2023-05-07T09:44:43;14.30;;;12.90;;
65172;SDS011;69059;52.218;5.172;2023-05-07T09:47:20;13.48;;;12.27;;
65172;SDS011;69059;52.218;5.172;2023-05-07T09:49:56;14.43;;;12.73;;
65172;SDS011;69059;52.218;5.172;2023-05-07T09:52:25;12.88;;;11.63;;
65172;SDS011;69059;52.218;5.172;2023-05-07T09:54:56;13.30;;;11.93;;
65172;SDS011;69059;52.218;5.172;2023-05-07T09:57:26;13.63;;;12.32;;
65172;SDS011;69059;52.218;5.172;2023-05-07T10:00:00;10.88;;;9.80;;
65172;SDS011;69059;52.218;5.172;2023-05-07T10:02:30;11.48;;;10.30;;
65172;SDS011;69059;52.218;5.172;2023-05-07T10:05:05;8.43;;;7.57;;
65172;SDS011;69059;52.218;5.172;2023-05-07T10:07:40;10.57;;;9.05;;
65172;SDS011;69059;52.218;5.172;2023-05-07T10:13:55;9.07;;;8.18;;
65172;SDS011;69059;52.218;5.172;2023-05-07T10:16:40;10.43;;;8.95;;
65172;SDS011;69059;52.218;5.172;2023-05-07T10:22:43;8.90;;;7.00;;
65172;SDS011;69059;52.218;5.172;2023-05-07T10:25:33;8.93;;;7.60;;
65172;SDS011;69059;52.218;5.172;2023-05-07T10:28:56;11.97;;;8.57;;
65172;SDS011;69059;52.218;5.172;2023-05-07T10:38:30;10.55;;;8.70;;
65172;SDS011;69059;52.218;5.172;2023-05-07T10:45:25;9.43;;;8.07;;
65172;SDS011;69059;52.218;5.172;2023-05-07T10:51:27;9.20;;;7.30;;
65172;SDS011;69059;52.218;5.172;2023-05-07T10:54:21;7.57;;;6.05;;
65172;SDS011;69059;52.218;5.172;2023-05-07T10:56:52;9.10;;;6.03;;
65172;SDS011;69059;52.218;5.172;2023-05-07T10:59:35;7.85;;;5.95;;
65172;SDS011;69059;52.218;5.172;2023-05-07T11:02:15;8.00;;;4.75;;
65172;SDS011;69059;52.218;5.172;2023-05-07T11:05:30;9.68;;;5.57;;
65172;SDS011;69059;52.218;5.172;2023-05-07T11:08:55;7.07;;;5.28;;
65172;SDS011;69059;52.218;5.172;2023-05-07T11:14:22;6.55;;;3.47;;
65172;SDS011;69059;52.218;5.172;2023-05-07T11:17:12;8.50;;;3.50;;
65172;SDS011;69059;52.218;5.172;2023-05-07T11:20:03;5.47;;;3.30;;
65172;SDS011;69059;52.218;5.172;2023-05-07T11:22:35;5.40;;;2.50;;
65172;SDS011;69059;52.218;5.172;2023-05-07T11:25:06;5.80;;;2.90;;
65172;SDS011;69059;52.218;5.172;2023-05-07T11:27:35;5.55;;;2.65;;
65172;SDS011;69059;52.218;5.172;2023-05-07T11:30:04;3.83;;;2.58;;
65172;SDS011;69059;52.218;5.172;2023-05-07T11:32:32;5.72;;;3.05;;
65172;SDS011;69059;52.218;5.172;2023-05-07T11:35:00;5.15;;;3.33;;
65172;SDS011;69059;52.218;5.172;2023-05-07T11:37:28;5.72;;;2.92;;
65172;SDS011;69059;52.218;5.172;2023-05-07T11:42:37;6.38;;;2.78;;
65172;SDS011;69059;52.218;5.172;2023-05-07T11:45:06;5.82;;;2.85;;
65172;SDS011;69059;52.218;5.172;2023-05-07T11:47:35;4.07;;;2.88;;
65172;SDS011;69059;52.218;5.172;2023-05-07T11:50:04;8.10;;;3.50;;
65172;SDS011;69059;52.218;5.172;2023-05-07T11:52:34;6.07;;;2.92;;
65172;SDS011;69059;52.218;5.172;2023-05-07T11:55:04;5.18;;;3.30;;
65172;SDS011;69059;52.218;5.172;2023-05-07T11:57:34;4.25;;;2.42;;
65172;SDS011;69059;52.218;5.172;2023-05-07T12:00:04;3.75;;;2.40;;
65172;SDS011;69059;52.218;5.172;2023-05-07T12:02:33;4.88;;;2.53;;
65172;SDS011;69059;52.218;5.172;2023-05-07T12:05:01;3.33;;;2.42;;
65172;SDS011;69059;52.218;5.172;2023-05-07T12:07:29;5.03;;;2.60;;
65172;SDS011;69059;52.218;5.172;2023-05-07T12:09:58;4.65;;;2.63;;
65172;SDS011;69059;52.218;5.172;2023-05-07T12:12:25;5.97;;;2.78;;
65172;SDS011;69059;52.218;5.172;2023-05-07T12:14:54;6.38;;;2.58;;
65172;SDS011;69059;52.218;5.172;2023-05-07T12:17:23;6.93;;;2.75;;
65172;SDS011;69059;52.218;5.172;2023-05-07T12:19:50;5.93;;;2.83;;
65172;SDS011;69059;52.218;5.172;2023-05-07T12:22:19;6.47;;;2.63;;
65172;SDS011;69059;52.218;5.172;2023-05-07T12:24:48;8.00;;;2.95;;
65172;SDS011;69059;52.218;5.172;2023-05-07T12:27:17;4.78;;;2.83;;
65172;SDS011;69059;52.218;5.172;2023-05-07T12:29:47;6.30;;;3.00;;
65172;SDS011;69059;52.218;5.172;2023-05-07T12:32:15;6.53;;;2.75;;
65172;SDS011;69059;52.218;5.172;2023-05-07T12:34:45;7.53;;;2.60;;
65172;SDS011;69059;52.218;5.172;2023-05-07T12:37:14;4.38;;;2.80;;
65172;SDS011;69059;52.218;5.172;2023-05-07T12:39:47;7.07;;;2.80;;
65172;SDS011;69059;52.218;5.172;2023-05-07T12:42:15;7.18;;;3.42;;
65172;SDS011;69059;52.218;5.172;2023-05-07T12:44:45;7.22;;;3.60;;
65172;SDS011;69059;52.218;5.172;2023-05-07T12:47:14;8.38;;;3.83;;
65172;SDS011;69059;52.218;5.172;2023-05-07T12:49:42;5.72;;;3.35;;
65172;SDS011;69059;52.218;5.172;2023-05-07T12:52:13;5.80;;;3.40;;
65172;SDS011;69059;52.218;5.172;2023-05-07T12:54:41;6.00;;;3.17;;
65172;SDS011;69059;52.218;5.172;2023-05-07T12:57:09;6.35;;;2.95;;
65172;SDS011;69059;52.218;5.172;2023-05-07T12:59:38;4.50;;;2.72;;
65172;SDS011;69059;52.218;5.172;2023-05-07T13:02:08;4.18;;;2.80;;
65172;SDS011;69059;52.218;5.172;2023-05-07T13:04:36;4.57;;;2.85;;
65172;SDS011;69059;52.218;5.172;2023-05-07T13:07:04;5.43;;;3.50;;
65172;SDS011;69059;52.218;5.172;2023-05-07T13:09:33;4.57;;;3.13;;
65172;SDS011;69059;52.218;5.172;2023-05-07T13:12:03;6.63;;;4.35;;
65172;SDS011;69059;52.218;5.172;2023-05-07T13:14:32;7.30;;;4.05;;
65172;SDS011;69059;52.218;5.172;2023-05-07T13:17:00;7.60;;;4.47;;
65172;SDS011;69059;52.218;5.172;2023-05-07T13:19:27;6.05;;;4.10;;
65172;SDS011;69059;52.218;5.172;2023-05-07T13:21:56;6.30;;;3.85;;
65172;SDS011;69059;52.218;5.172;2023-05-07T13:24:24;5.28;;;2.92;;
65172;SDS011;69059;52.218;5.172;2023-05-07T13:26:53;7.72;;;3.92;;
65172;SDS011;69059;52.218;5.172;2023-05-07T13:29:21;6.97;;;4.10;;
65172;SDS011;69059;52.218;5.172;2023-05-07T13:31:54;6.38;;;4.63;;
65172;SDS011;69059;52.218;5.172;2023-05-07T13:34:22;5.57;;;4.78;;
65172;SDS011;69059;52.218;5.172;2023-05-07T13:36:50;6.90;;;4.22;;
65172;SDS011;69059;52.218;5.172;2023-05-07T13:39:18;6.38;;;4.53;;
65172;SDS011;69059;52.218;5.172;2023-05-07T13:41:45;6.50;;;4.90;;
65172;SDS011;69059;52.218;5.172;2023-05-07T13:44:14;7.63;;;4.80;;
65172;SDS011;69059;52.218;5.172;2023-05-07T13:46:42;6.15;;;4.57;;
65172;SDS011;69059;52.218;5.172;2023-05-07T13:49:10;6.88;;;4.65;;
65172;SDS011;69059;52.218;5.172;2023-05-07T13:51:39;8.32;;;5.85;;
65172;SDS011;69059;52.218;5.172;2023-05-07T13:54:06;8.98;;;6.15;;
65172;SDS011;69059;52.218;5.172;2023-05-07T13:56:34;9.73;;;7.03;;
65172;SDS011;69059;52.218;5.172;2023-05-07T13:59:02;9.13;;;6.82;;
65172;SDS011;69059;52.218;5.172;2023-05-07T14:01:31;10.38;;;6.57;;
65172;SDS011;69059;52.218;5.172;2023-05-07T14:03:59;11.50;;;7.32;;
65172;SDS011;69059;52.218;5.172;2023-05-07T14:06:27;11.50;;;7.70;;
65172;SDS011;69059;52.218;5.172;2023-05-07T14:08:55;10.32;;;7.00;;
65172;SDS011;69059;52.218;5.172;2023-05-07T14:11:24;11.18;;;7.03;;
65172;SDS011;69059;52.218;5.172;2023-05-07T14:13:52;10.57;;;7.25;;
65172;SDS011;69059;52.218;5.172;2023-05-07T14:16:19;9.65;;;5.50;;
65172;SDS011;69059;52.218;5.172;2023-05-07T14:18:49;8.43;;;5.35;;
65172;SDS011;69059;52.218;5.172;2023-05-07T14:21:16;10.93;;;5.70;;
65172;SDS011;69059;52.218;5.172;2023-05-07T14:23:44;9.25;;;7.00;;
65172;SDS011;69059;52.218;5.172;2023-05-07T14:26:12;9.55;;;6.50;;
65172;SDS011;69059;52.218;5.172;2023-05-07T14:28:40;8.40;;;6.80;;
65172;SDS011;69059;52.218;5.172;2023-05-07T14:31:12;17.80;;;9.93;;
65172;SDS011;69059;52.218;5.172;2023-05-07T14:36:09;20.13;;;10.77;;
65172;SDS011;69059;52.218;5.172;2023-05-07T14:38:37;16.05;;;8.60;;
65172;SDS011;69059;52.218;5.172;2023-05-07T14:41:05;19.45;;;8.95;;
65172;SDS011;69059;52.218;5.172;2023-05-07T14:43:32;11.95;;;6.32;;
65172;SDS011;69059;52.218;5.172;2023-05-07T14:46:00;30.08;;;10.07;;
65172;SDS011;69059;52.218;5.172;2023-05-07T14:48:28;19.38;;;7.25;;
65172;SDS011;69059;52.218;5.172;2023-05-07T14:50:55;21.48;;;9.25;;
65172;SDS011;69059;52.218;5.172;2023-05-07T14:53:25;16.02;;;7.40;;
65172;SDS011;69059;52.218;5.172;2023-05-07T14:55:52;26.10;;;10.95;;
65172;SDS011;69059;52.218;5.172;2023-05-07T15:00:49;27.38;;;13.98;;
65172;SDS011;69059;52.218;5.172;2023-05-07T15:03:16;22.35;;;11.98;;
65172;SDS011;69059;52.218;5.172;2023-05-07T15:05:44;20.27;;;13.95;;
65172;SDS011;69059;52.218;5.172;2023-05-07T15:08:12;12.95;;;11.55;;
65172;SDS011;69059;52.218;5.172;2023-05-07T15:10:42;16.00;;;11.77;;
65172;SDS011;69059;52.218;5.172;2023-05-07T15:13:10;14.32;;;9.95;;
65172;SDS011;69059;52.218;5.172;2023-05-07T15:15:41;16.38;;;8.75;;